createdAt,value
2019-02-27T00:02:43.261Z,61.20
2019-02-27T00:06:53.609Z,62.00
2019-02-27T00:11:04.910Z,62.40
2019-02-27T00:15:16.140Z,62.50
2019-02-27T00:19:31.133Z,62.70
2019-02-27T00:23:41.381Z,63.00
2019-02-27T00:32:43.436Z,64.60
2019-02-27T00:37:14.285Z,65.40
2019-02-27T00:41:27.123Z,65.30
2019-02-27T00:45:40.034Z,66.10
2019-02-27T00:49:51.224Z,65.80
2019-02-27T00:54:02.568Z,65.70
2019-02-27T00:58:13.796Z,65.50
2019-02-27T01:02:24.976Z,65.20
2019-02-27T01:06:36.295Z,65.10
2019-02-27T01:10:47.621Z,64.80
2019-02-27T01:14:58.873Z,64.70
2019-02-27T01:19:10.139Z,64.10
2019-02-27T01:23:28.830Z,63.80
2019-02-27T01:36:51.655Z,62.90
2019-02-27T01:45:23.844Z,63.50
2019-02-27T01:49:35.016Z,64.10
2019-02-27T01:53:46.179Z,64.80
2019-02-27T01:57:59.710Z,65.40
2019-02-27T02:02:18.525Z,65.70
2019-02-27T02:06:32.224Z,66.50
2019-02-27T02:10:50.099Z,66.90
2019-02-27T02:20:18.297Z,67.20
2019-02-27T02:39:26.495Z,68.10
2019-02-27T02:44:00.520Z,68.60
2019-02-27T02:48:17.969Z,68.80
2019-02-27T02:52:32.175Z,70.00
2019-02-27T02:57:04.846Z,70.00
2019-02-27T03:01:28.820Z,69.40
2019-02-27T03:05:43.424Z,70.00
2019-02-27T03:10:00.452Z,71.60
2019-02-27T03:14:35.317Z,72.10
2019-02-27T03:19:15.493Z,72.50
2019-02-27T03:23:52.225Z,72.50
2019-02-27T03:28:33.427Z,72.10
2019-02-27T03:32:54.027Z,71.80
2019-02-27T03:37:38.140Z,71.50
2019-02-27T03:42:03.238Z,71.90
2019-02-27T03:46:33.859Z,71.50
2019-02-27T03:50:56.991Z,71.30
2019-02-27T03:55:32.831Z,71.70
2019-02-27T03:59:51.212Z,72.00
2019-02-27T04:04:11.832Z,72.10
2019-02-27T04:08:43.487Z,72.20
2019-02-27T04:12:53.182Z,72.40
2019-02-27T04:17:07.086Z,72.40
2019-02-27T04:21:17.760Z,72.70
2019-02-27T04:25:31.558Z,73.00
2019-02-27T04:29:42.561Z,73.20
2019-02-27T04:33:53.810Z,73.40
2019-02-27T04:38:04.368Z,73.50
2019-02-27T04:42:15.640Z,73.40
2019-02-27T04:46:26.841Z,73.30
2019-02-27T04:50:37.960Z,73.00
2019-02-27T04:54:49.119Z,72.70
2019-02-27T04:59:00.411Z,72.80
2019-02-27T05:03:11.680Z,72.80
2019-02-27T05:07:22.901Z,72.60
2019-02-27T05:11:34.139Z,72.40
2019-02-27T05:15:45.373Z,72.00
2019-02-27T05:19:56.637Z,71.90
2019-02-27T05:24:08.626Z,71.90
2019-02-27T05:28:19.942Z,72.10
2019-02-27T05:32:30.517Z,72.30
2019-02-27T05:36:41.652Z,72.50
2019-02-27T05:40:52.780Z,72.70
2019-02-27T05:45:04.849Z,72.80
2019-02-27T05:49:16.090Z,72.90
2019-02-27T05:53:27.632Z,73.80
2019-02-27T05:57:38.929Z,73.30
2019-02-27T06:01:50.152Z,73.40
2019-02-27T06:06:01.389Z,73.60
2019-02-27T06:10:19.716Z,73.70
2019-02-27T06:14:28.095Z,73.70
2019-02-27T06:18:39.271Z,74.50
2019-02-27T06:22:50.727Z,73.90
2019-02-27T06:27:06.033Z,74.10
2019-02-27T06:31:14.688Z,74.00
2019-02-27T06:35:25.927Z,73.90
2019-02-27T06:39:37.091Z,74.00
2019-02-27T06:43:48.323Z,73.50
2019-02-27T06:47:59.547Z,72.90
2019-02-27T06:52:10.823Z,72.40
2019-02-27T06:56:22.184Z,72.50
2019-02-27T07:00:38.502Z,72.40
2019-02-27T07:04:50.048Z,72.20
2019-02-27T07:09:01.214Z,71.90
2019-02-27T07:13:12.393Z,72.10
2019-02-27T07:17:23.568Z,71.90
2019-02-27T07:21:34.832Z,71.80
2019-02-27T07:25:47.876Z,71.20
2019-02-27T07:29:58.978Z,70.80
2019-02-27T07:34:14.237Z,69.50
2019-02-27T07:38:23.016Z,66.70
2019-02-27T07:42:36.224Z,64.00
2019-02-27T07:46:46.994Z,61.90
2019-02-27T07:50:58.093Z,60.40
2019-02-27T07:55:20.798Z,59.30
2019-02-27T07:59:25.337Z,58.30
2019-02-27T08:03:36.690Z,56.70
2019-02-27T08:07:49.078Z,55.70
2019-02-27T08:12:01.981Z,54.70
2019-02-27T08:16:13.112Z,53.50
2019-02-27T08:20:24.366Z,52.50
2019-02-27T08:24:35.737Z,51.70
2019-02-27T08:28:47.209Z,50.60
2019-02-27T08:32:58.414Z,49.50
2019-02-27T08:37:09.679Z,48.20
2019-02-27T08:41:20.920Z,47.00
2019-02-27T08:45:32.061Z,45.50
2019-02-27T08:49:42.185Z,43.60
2019-02-27T08:53:53.525Z,43.10
2019-02-27T08:58:04.677Z,42.10
2019-02-27T09:02:16.031Z,40.90
2019-02-27T09:06:28.148Z,39.20
2019-02-27T09:10:39.608Z,38.70
2019-02-27T09:14:50.728Z,38.10
2019-02-27T09:19:01.923Z,37.50
2019-02-27T09:23:13.183Z,37.60
2019-02-27T09:27:24.524Z,37.00
2019-02-27T09:31:37.772Z,36.40
2019-02-27T09:35:49.563Z,36.10
2019-02-27T09:40:04.525Z,35.00
2019-02-27T09:44:13.734Z,33.30
2019-02-27T09:48:25.606Z,32.90
2019-02-27T09:52:36.771Z,32.60
2019-02-27T09:56:49.080Z,32.40
2019-02-27T10:01:04.517Z,33.00
2019-02-27T10:05:17.049Z,30.40
2019-02-27T10:09:29.484Z,29.60
2019-02-27T10:13:52.300Z,28.70
2019-02-27T10:18:04.318Z,28.60
2019-02-27T10:22:17.838Z,28.40
2019-02-27T10:26:29.266Z,26.90
2019-02-27T10:30:46.938Z,26.70
2019-02-27T10:34:58.761Z,25.60
2019-02-27T10:39:10.603Z,24.80
2019-02-27T10:43:21.836Z,24.00
2019-02-27T10:47:36.501Z,24.00
2019-02-27T10:51:46.800Z,22.60
2019-02-27T10:56:00.235Z,22.40
2019-02-27T11:00:32.226Z,22.20
2019-02-27T11:04:43.922Z,22.20
2019-02-27T11:08:56.703Z,21.20
2019-02-27T11:13:07.977Z,21.10
2019-02-27T11:17:19.317Z,21.00
2019-02-27T11:21:34.682Z,21.50
2019-02-27T11:25:45.919Z,20.20
2019-02-27T11:30:01.251Z,19.70
2019-02-27T11:34:16.081Z,19.60
2019-02-27T11:38:26.989Z,20.70
2019-02-27T11:42:39.175Z,20.50
2019-02-27T11:46:58.455Z,20.60
2019-02-27T11:51:05.893Z,21.00
2019-02-27T11:55:18.317Z,21.10
2019-02-27T11:59:29.492Z,20.90
2019-02-27T12:03:45.584Z,20.20
2019-02-27T12:07:53.846Z,20.50
2019-02-27T12:12:05.404Z,20.70
2019-02-27T12:16:18.339Z,20.20
2019-02-27T12:20:29.624Z,20.30
2019-02-27T12:24:40.780Z,19.70
2019-02-27T12:28:52.647Z,20.20
2019-02-27T12:33:04.072Z,19.80
2019-02-27T12:37:28.070Z,19.10
2019-02-27T12:41:33.347Z,19.80
2019-02-27T12:45:44.669Z,23.10
2019-02-27T12:49:55.825Z,25.60
2019-02-27T12:54:07.001Z,26.40
2019-02-27T12:58:19.712Z,27.20
2019-02-27T13:02:35.715Z,27.80
2019-02-27T13:06:45.061Z,28.10
2019-02-27T13:10:56.370Z,28.50
2019-02-27T13:15:10.683Z,29.30
2019-02-27T13:19:22.746Z,28.60
2019-02-27T13:23:36.309Z,29.20
2019-02-27T13:27:46.888Z,29.30
2019-02-27T13:31:58.037Z,29.50
2019-02-27T13:36:13.020Z,30.00
2019-02-27T13:40:28.112Z,30.40
2019-02-27T13:44:39.334Z,30.20
2019-02-27T13:48:50.471Z,30.40
2019-02-27T13:53:01.619Z,30.60
2019-02-27T13:57:12.921Z,30.80
2019-02-27T14:01:25.092Z,30.60
2019-02-27T14:05:37.017Z,30.60
2019-02-27T14:09:51.657Z,30.80
2019-02-27T14:14:03.023Z,31.10
2019-02-27T14:18:16.164Z,30.90
2019-02-27T14:22:33.562Z,31.30
2019-02-27T14:26:55.057Z,30.30
2019-02-27T14:31:09.022Z,29.50
2019-02-27T14:35:29.041Z,29.80
2019-02-27T14:39:39.414Z,29.50
2019-02-27T14:43:50.519Z,29.70
2019-02-27T14:48:07.105Z,29.60
2019-02-27T14:52:18.745Z,29.60
2019-02-27T14:56:29.980Z,30.00
2019-02-27T15:00:43.952Z,30.10
2019-02-27T15:04:56.286Z,29.90
2019-02-27T15:09:13.049Z,29.90
2019-02-27T15:13:28.128Z,30.10
2019-02-27T15:17:37.454Z,30.40
2019-02-27T15:21:49.292Z,30.00
2019-02-27T15:26:02.060Z,30.20
2019-02-27T15:30:24.217Z,30.00
2019-02-27T15:34:35.809Z,30.40
2019-02-27T15:38:47.290Z,30.20
2019-02-27T15:42:59.484Z,30.10
2019-02-27T15:47:12.294Z,29.90
2019-02-27T15:51:24.525Z,29.70
2019-02-27T15:55:37.800Z,29.80
2019-02-27T15:59:50.378Z,30.10
2019-02-27T16:04:01.538Z,30.00
2019-02-27T16:08:12.695Z,30.10
2019-02-27T16:12:26.014Z,30.30
2019-02-27T16:16:39.360Z,30.00
2019-02-27T16:20:51.556Z,30.10
2019-02-27T16:25:02.795Z,30.10
2019-02-27T16:29:14.041Z,30.00
2019-02-27T16:33:25.177Z,29.80
2019-02-27T16:37:36.351Z,30.10
2019-02-27T16:41:47.503Z,30.70
2019-02-27T16:45:59.351Z,31.10
2019-02-27T16:50:24.364Z,31.40
2019-02-27T16:54:32.404Z,31.80
2019-02-27T16:58:42.987Z,32.40
2019-02-27T17:02:54.346Z,32.80
2019-02-27T17:07:06.942Z,33.00
2019-02-27T17:11:18.164Z,33.30
2019-02-27T17:15:34.546Z,34.00
2019-02-27T17:19:46.891Z,34.20
2019-02-27T17:23:58.072Z,34.40
2019-02-27T17:28:10.663Z,34.70
2019-02-27T17:32:21.798Z,34.80
2019-02-27T17:36:39.494Z,35.00
2019-02-27T17:40:52.553Z,35.30
2019-02-27T17:49:36.131Z,35.90
2019-02-27T17:53:48.508Z,36.20
2019-02-27T17:58:00.543Z,36.80
2019-02-27T18:02:11.947Z,37.40
2019-02-27T18:06:24.830Z,38.00
2019-02-27T18:10:38.258Z,38.60
2019-02-27T18:14:50.819Z,38.80
2019-02-27T18:19:02.491Z,39.20
2019-02-27T18:23:15.262Z,39.80
2019-02-27T18:27:28.034Z,40.50
2019-02-27T18:31:38.716Z,40.90
2019-02-27T18:35:50.412Z,41.00
2019-02-27T18:40:01.669Z,40.90
2019-02-27T18:44:12.947Z,40.70
2019-02-27T18:48:24.165Z,40.40
2019-02-27T18:52:38.234Z,40.10
2019-02-27T18:56:49.618Z,40.20
2019-02-27T19:01:01.953Z,40.20
2019-02-27T19:05:16.750Z,40.30
2019-02-27T19:09:29.345Z,40.50
2019-02-27T19:13:40.763Z,41.00
2019-02-27T19:17:52.271Z,41.20
2019-02-27T19:22:04.349Z,41.50
2019-02-27T19:26:16.705Z,41.80
2019-02-27T19:30:28.317Z,41.70
2019-02-27T19:34:41.483Z,41.80
2019-02-27T19:38:53.151Z,42.20
2019-02-27T19:43:05.960Z,42.20
2019-02-27T19:47:18.465Z,42.70
2019-02-27T19:51:30.834Z,43.00
2019-02-27T19:55:42.045Z,43.20
2019-02-27T19:59:58.657Z,43.30
2019-02-27T20:04:09.581Z,43.80
2019-02-27T20:08:19.622Z,43.80
2019-02-27T20:12:32.112Z,44.00
2019-02-27T20:16:43.350Z,44.10
2019-02-27T20:20:54.669Z,44.10
2019-02-27T20:25:09.756Z,44.30
2019-02-27T20:29:21.315Z,44.40
2019-02-27T20:33:34.290Z,44.60
2019-02-27T20:37:46.390Z,44.80
2019-02-27T20:41:57.518Z,45.10
2019-02-27T20:46:10.365Z,45.40
2019-02-27T20:50:41.018Z,45.60
2019-02-27T20:54:52.252Z,45.70
2019-02-27T20:59:03.405Z,46.10
2019-02-27T21:03:14.678Z,46.30
2019-02-27T21:07:26.787Z,46.50
2019-02-27T21:11:39.084Z,47.20
2019-02-27T21:15:52.574Z,47.30
2019-02-27T21:20:04.995Z,47.50
2019-02-27T21:24:16.166Z,48.10
2019-02-27T21:28:27.381Z,48.30
2019-02-27T21:32:38.647Z,48.60
2019-02-27T21:36:49.911Z,48.50
2019-02-27T21:41:01.127Z,48.70
2019-02-27T21:45:14.336Z,48.90
2019-02-27T21:49:26.426Z,49.20
2019-02-27T21:53:37.631Z,49.30
2019-02-27T21:57:48.860Z,49.30
2019-02-27T22:02:00.083Z,49.40
2019-02-27T22:06:11.307Z,49.80
2019-02-27T22:10:22.643Z,49.70
2019-02-27T22:14:33.733Z,49.80
2019-02-27T22:18:46.987Z,49.80
2019-02-27T22:22:57.729Z,50.10
2019-02-27T22:27:12.852Z,50.10
2019-02-27T22:31:22.837Z,50.20
2019-02-27T22:35:37.306Z,50.40
2019-02-27T22:39:46.809Z,50.50
2019-02-27T22:43:57.969Z,50.80
2019-02-27T22:48:09.784Z,51.10
2019-02-27T22:52:21.054Z,51.40
2019-02-27T22:56:33.303Z,51.90
2019-02-27T23:00:56.273Z,52.50
2019-02-27T23:05:07.840Z,52.60
2019-02-27T23:09:21.100Z,52.80
2019-02-27T23:13:32.224Z,52.90
2019-02-27T23:17:43.419Z,53.00
2019-02-27T23:21:57.562Z,53.30
2019-02-27T23:26:07.517Z,53.20
2019-02-27T23:30:18.747Z,53.90
2019-02-27T23:34:29.909Z,53.50
2019-02-27T23:38:41.165Z,53.60
2019-02-27T23:42:55.434Z,53.70
2019-02-27T23:47:06.576Z,53.90
2019-02-27T23:51:17.743Z,54.20
2019-02-27T23:55:29.775Z,54.10
2019-02-27T23:59:41.934Z,54.00
